LEBLLESO

Guest
Details From LEBL - Barcelona El Prat
To LESO - San Sebastian
Flight Number -
Tags Generated
Created
Modified
Stats Distance 212 nm / 393 km
Max Altitude 0 ft / 0 m
Waypoints 2
Social Downloads 1
Likes 0
Share VATSIM

Download

Looking for another format? Having issues loading an existing format? Contact us
Advertisement - Login to hide

Notes

Generated

Route

LEBL LESO

ID Type Via Altitude Latitude Longitude Leg Dist Tot Dist Heading (true) Name
O LEBL APT - 0 ft / 0 m 41.28777˚ 2.08484˚ - 0 nm - -
O LESO APT - 0 ft / 0 m 43.35035˚ -1.79740˚ 212 nm 212 nm 307° / 304° -

Altitude Profile

Advertisement - Login to hide

Weather


0- 5 10 15 20 25 30 35+ Temperature / ° C

Clouds and Precipitation
Forecast for 2018-05-24 12:00 UTC. Updated 2 hours ago

Ground ~20,000 ft ~40,000 ft Winds

LEBL

Details ICAO LEBL (BCN)
Name Barcelona - El Prat
Region Spain
Timezone Europe/Madrid (UTC+2.0)
Stats Elevation 14 ft / 4 m (AMSL)
Location 41.295108° 2.088030°
Runways 3
Magnetic Variation 0.870° E

METAR

LEBL 241030Z 17007KT 140V210 9999 FEW015 22/17 Q1017 NOSIG

Decode

TAF

TAF LEBL 240500Z 2406/2506 32004KT 9999 FEW015 TX24/2412Z TN17/2406Z BECMG 2407/2409 17007KT BECMG 2416/2418 07007KT

Decode

Departure Runways

ID Width Length Bearing (true) Bearing (mag) Surface Threshold Offset Overrun Length
02 148 ft / 45 m 8,343 ft / 2,543 m 18.93° 18.06° Asphalt 0 ft / 0 m 348 ft / 106 m
07L 197 ft / 60 m 10,983 ft / 3,348 m 65.49° 64.62° Asphalt 1,411 ft / 430 m 1,161 ft / 354 m
07R 197 ft / 60 m 8,718 ft / 2,657 m 65.49° 64.62° Asphalt 0 ft / 0 m 207 ft / 63 m
20 148 ft / 45 m 8,343 ft / 2,543 m 198.93° 198.06° Asphalt 0 ft / 0 m 200 ft / 61 m
25L 197 ft / 60 m 8,718 ft / 2,657 m 245.51° 244.64° Asphalt 0 ft / 0 m 203 ft / 62 m
25R 197 ft / 60 m 10,983 ft / 3,348 m 245.51° 244.64° Asphalt 0 ft / 0 m 522 ft / 159 m

LESO

Details ICAO LESO (EAS)
Name San_Sebastian
Region Spain
Timezone Europe/Madrid (UTC+2.0)
Stats Elevation 14 ft / 4 m (AMSL)
Location 43.356520° -1.790611°
Runways 1
Magnetic Variation 0.243° W

METAR

LESO 241030Z 02005KT 340V070 9999 FEW029 21/17 Q1016

Decode

TAF

TAF LESO 240500Z 2406/2506 VRB04KT 9999 FEW010 TX24/2414Z TN16/2406Z PROB40 TEMPO 2406/2408 3000 BR BKN010 PROB40 TEMPO 2406/2424 3000 SHRA BKN014 SCT025TCU PROB30 TEMPO 2415/2421 3000 TSRA BKN010 SCT025CB TEMPO 2411/2418 04010KT TEMPO 2500/2506 3000 BR BKN010

Decode

Destination Runways

ID Width Length Bearing (true) Bearing (mag) Surface Threshold Offset Overrun Length
04 148 ft / 45 m 5,762 ft / 1,756 m 38.68° 38.92° Asphalt 0 ft / 0 m 0 ft / 0 m
22 148 ft / 45 m 5,762 ft / 1,756 m 218.69° 218.93° Asphalt 0 ft / 0 m 0 ft / 0 m

Popular Alternatives